Главная страница
METAR-TAF:

METAR-TAF

Аэропорты :

Дьёр, Венгрия

широта: 47-37-28N, долгота: 017-48-49E, высота над уровнем моря: 129 м

Текущие метеонаблюдения

Эта сводка был подготовлена 28 минут назад, в 22:45 UTC
Ветер 7 Узел от западный
Температура 8°C
Влажность 81%
Давление 1025 hPa
Видимость 10 км и более
Нет облачности ниже 1500 м, и нет кучево-дождевой облачности

METAR: LHPR 222245Z AUTO 28007KT CAVOK 08/05 Q1025 RMK BLU

Время: 01:13 (23:13 UTC)

Прогноз

Эта сводка был подготовлена 5 часа и 58 минут назад, в 17:15 UTC
Прогноз действительный с 22-го 18 UTC до 23-го 03 UTC
Ветер 3 Узел переменных направлений
Видимость 10 км и более
Нет облачности ниже 1500 м, и нет кучево-дождевой облачности
временами
С 22-го 18 UTC до 22-го 22 UTC
Видимость: 4000 м
дымка
изменения
С 22-го 22 UTC до 23-го 01 UTC
Ветер 11 Узел от северо-западный

TAF: LHPR 221715Z 2218/2303 VRB03KT CAVOK TEMPO 2218/2222 4000 BR BECMG 2222/2301 32011KT

Метеонаблюдения и прогнозы для более 4000 аэропортов (сводки METAR и TAF).

Имеющиеся станции представлены на карте желтыми и красными точками.

Чтобы увидеть название станции, наведите на нее мышь.

Затем щелкните, чтобы увидеть метеонаблюдения и метеопрогнозы.

Управление картой: чтобы увеличить масштаб, щелкните зеленые кнопки с черным крестиком; чтобы уменьшить масштаб, щелкните зеленую кнопку с тире; для просмотра соседних карт щелкайте зеленые стрелки.


METAR-TAF: